sensor_id;sensor_type;location;lat;lon;timestamp;temperature;humidity
15203;DHT22;7702;51.046;5.184;2022-09-09T00:06:46;14.50;99.90
15203;DHT22;7702;51.046;5.184;2022-09-09T00:09:22;14.50;99.90
15203;DHT22;7702;51.046;5.184;2022-09-09T00:11:56;14.50;99.90
15203;DHT22;7702;51.046;5.184;2022-09-09T00:17:38;14.50;99.90
15203;DHT22;7702;51.046;5.184;2022-09-09T00:20:19;14.50;99.90
15203;DHT22;7702;51.046;5.184;2022-09-09T00:22:57;14.50;99.90
15203;DHT22;7702;51.046;5.184;2022-09-09T00:25:32;14.50;99.90
15203;DHT22;7702;51.046;5.184;2022-09-09T00:28:02;14.40;99.90
15203;DHT22;7702;51.046;5.184;2022-09-09T00:30:33;14.40;99.90
15203;DHT22;7702;51.046;5.184;2022-09-09T00:33:03;14.40;99.90
15203;DHT22;7702;51.046;5.184;2022-09-09T00:35:34;14.40;99.90
15203;DHT22;7702;51.046;5.184;2022-09-09T00:38:06;14.40;99.90
15203;DHT22;7702;51.046;5.184;2022-09-09T00:40:41;14.50;99.90
15203;DHT22;7702;51.046;5.184;2022-09-09T00:43:27;14.50;99.90
15203;DHT22;7702;51.046;5.184;2022-09-09T01:02:37;14.30;99.90
15203;DHT22;7702;51.046;5.184;2022-09-09T01:05:07;14.30;99.90
15203;DHT22;7702;51.046;5.184;2022-09-09T01:07:36;14.40;99.90
15203;DHT22;7702;51.046;5.184;2022-09-09T01:10:07;14.40;99.90
15203;DHT22;7702;51.046;5.184;2022-09-09T01:12:41;14.50;99.90
15203;DHT22;7702;51.046;5.184;2022-09-09T01:15:17;14.50;99.90
15203;DHT22;7702;51.046;5.184;2022-09-09T01:20:27;14.40;99.90
15203;DHT22;7702;51.046;5.184;2022-09-09T01:26:09;14.40;99.90
15203;DHT22;7702;51.046;5.184;2022-09-09T01:28:40;14.40;99.90
15203;DHT22;7702;51.046;5.184;2022-09-09T01:31:09;14.40;99.90
15203;DHT22;7702;51.046;5.184;2022-09-09T01:33:36;14.30;99.90
15203;DHT22;7702;51.046;5.184;2022-09-09T01:38:57;14.30;99.90
15203;DHT22;7702;51.046;5.184;2022-09-09T01:41:23;14.30;99.90
15203;DHT22;7702;51.046;5.184;2022-09-09T01:43:49;14.20;99.90
15203;DHT22;7702;51.046;5.184;2022-09-09T01:46:16;14.20;99.90
15203;DHT22;7702;51.046;5.184;2022-09-09T01:48:43;14.20;99.90
15203;DHT22;7702;51.046;5.184;2022-09-09T01:51:09;14.30;99.90
15203;DHT22;7702;51.046;5.184;2022-09-09T01:53:39;14.20;99.90
15203;DHT22;7702;51.046;5.184;2022-09-09T01:59:21;14.20;99.90
15203;DHT22;7702;51.046;5.184;2022-09-09T02:02:15;14.10;99.90
15203;DHT22;7702;51.046;5.184;2022-09-09T02:04:49;14.10;99.90
15203;DHT22;7702;51.046;5.184;2022-09-09T02:07:34;14.10;99.90
15203;DHT22;7702;51.046;5.184;2022-09-09T02:12:41;14.00;99.90
15203;DHT22;7702;51.046;5.184;2022-09-09T02:15:18;14.00;99.90
15203;DHT22;7702;51.046;5.184;2022-09-09T02:17:46;14.00;99.90
15203;DHT22;7702;51.046;5.184;2022-09-09T02:20:14;14.00;99.90
15203;DHT22;7702;51.046;5.184;2022-09-09T02:22:43;14.10;99.90
15203;DHT22;7702;51.046;5.184;2022-09-09T02:25:12;14.10;99.90
15203;DHT22;7702;51.046;5.184;2022-09-09T02:27:41;14.10;99.90
15203;DHT22;7702;51.046;5.184;2022-09-09T02:30:09;14.10;99.90
15203;DHT22;7702;51.046;5.184;2022-09-09T02:32:36;14.10;99.90
15203;DHT22;7702;51.046;5.184;2022-09-09T02:35:07;14.10;99.90
15203;DHT22;7702;51.046;5.184;2022-09-09T02:37:37;14.10;99.90
15203;DHT22;7702;51.046;5.184;2022-09-09T02:40:08;14.10;99.90
15203;DHT22;7702;51.046;5.184;2022-09-09T02:42:39;14.10;99.90
15203;DHT22;7702;51.046;5.184;2022-09-09T02:45:06;14.10;99.90
15203;DHT22;7702;51.046;5.184;2022-09-09T02:47:40;14.20;99.90
15203;DHT22;7702;51.046;5.184;2022-09-09T02:50:16;14.20;99.90
15203;DHT22;7702;51.046;5.184;2022-09-09T02:58:00;14.20;99.90
15203;DHT22;7702;51.046;5.184;2022-09-09T03:00:28;14.20;99.90
15203;DHT22;7702;51.046;5.184;2022-09-09T03:02:54;14.20;99.90
15203;DHT22;7702;51.046;5.184;2022-09-09T03:05:20;14.20;99.90
15203;DHT22;7702;51.046;5.184;2022-09-09T03:07:47;14.20;99.90
15203;DHT22;7702;51.046;5.184;2022-09-09T03:10:13;14.20;99.90
15203;DHT22;7702;51.046;5.184;2022-09-09T03:12:39;14.20;99.90
15203;DHT22;7702;51.046;5.184;2022-09-09T03:15:05;14.30;99.90
15203;DHT22;7702;51.046;5.184;2022-09-09T03:17:31;14.30;99.90
15203;DHT22;7702;51.046;5.184;2022-09-09T03:19:57;14.30;99.90
15203;DHT22;7702;51.046;5.184;2022-09-09T03:22:24;14.40;99.90
15203;DHT22;7702;51.046;5.184;2022-09-09T03:24:51;14.40;99.90
15203;DHT22;7702;51.046;5.184;2022-09-09T03:27:18;14.50;99.90
15203;DHT22;7702;51.046;5.184;2022-09-09T03:29:45;14.50;99.90
15203;DHT22;7702;51.046;5.184;2022-09-09T03:32:10;14.60;99.90
15203;DHT22;7702;51.046;5.184;2022-09-09T03:34:36;14.60;99.90
15203;DHT22;7702;51.046;5.184;2022-09-09T03:37:04;14.60;99.90
15203;DHT22;7702;51.046;5.184;2022-09-09T03:39:31;14.60;99.90
15203;DHT22;7702;51.046;5.184;2022-09-09T03:41:56;14.70;99.90
15203;DHT22;7702;51.046;5.184;2022-09-09T03:44:22;14.60;99.90
15203;DHT22;7702;51.046;5.184;2022-09-09T03:46:48;14.70;99.90
15203;DHT22;7702;51.046;5.184;2022-09-09T03:49:13;14.70;99.90
15203;DHT22;7702;51.046;5.184;2022-09-09T03:51:39;14.70;99.90
15203;DHT22;7702;51.046;5.184;2022-09-09T03:54:06;14.80;99.90
15203;DHT22;7702;51.046;5.184;2022-09-09T03:56:34;14.80;99.90
15203;DHT22;7702;51.046;5.184;2022-09-09T03:59:00;14.70;99.90
15203;DHT22;7702;51.046;5.184;2022-09-09T04:01:27;14.70;99.90
15203;DHT22;7702;51.046;5.184;2022-09-09T04:03:52;14.70;99.90
15203;DHT22;7702;51.046;5.184;2022-09-09T04:06:18;14.70;99.90
15203;DHT22;7702;51.046;5.184;2022-09-09T04:08:46;14.70;99.90
15203;DHT22;7702;51.046;5.184;2022-09-09T04:11:14;14.80;99.90
15203;DHT22;7702;51.046;5.184;2022-09-09T04:13:40;14.70;99.90
15203;DHT22;7702;51.046;5.184;2022-09-09T04:16:08;14.70;99.90
15203;DHT22;7702;51.046;5.184;2022-09-09T04:18:35;14.70;99.90
15203;DHT22;7702;51.046;5.184;2022-09-09T04:21:01;14.70;99.90
15203;DHT22;7702;51.046;5.184;2022-09-09T04:23:28;14.70;99.90
15203;DHT22;7702;51.046;5.184;2022-09-09T04:25:55;14.70;99.90
15203;DHT22;7702;51.046;5.184;2022-09-09T04:28:23;14.70;99.90
15203;DHT22;7702;51.046;5.184;2022-09-09T04:30:49;14.60;99.90
15203;DHT22;7702;51.046;5.184;2022-09-09T04:33:15;14.60;99.90
15203;DHT22;7702;51.046;5.184;2022-09-09T04:35:48;14.70;99.90
15203;DHT22;7702;51.046;5.184;2022-09-09T04:38:15;14.70;99.90
15203;DHT22;7702;51.046;5.184;2022-09-09T04:40:47;14.70;99.90
15203;DHT22;7702;51.046;5.184;2022-09-09T04:43:13;14.70;99.90
15203;DHT22;7702;51.046;5.184;2022-09-09T04:45:40;14.70;99.90
15203;DHT22;7702;51.046;5.184;2022-09-09T04:48:07;14.70;99.90
15203;DHT22;7702;51.046;5.184;2022-09-09T04:50:33;14.70;99.90
15203;DHT22;7702;51.046;5.184;2022-09-09T04:53:03;14.70;99.90
15203;DHT22;7702;51.046;5.184;2022-09-09T04:55:30;14.70;99.90
15203;DHT22;7702;51.046;5.184;2022-09-09T04:57:55;14.70;99.90
15203;DHT22;7702;51.046;5.184;2022-09-09T05:00:23;14.70;99.90
15203;DHT22;7702;51.046;5.184;2022-09-09T05:02:49;14.70;99.90
15203;DHT22;7702;51.046;5.184;2022-09-09T05:05:14;14.70;99.90
15203;DHT22;7702;51.046;5.184;2022-09-09T05:07:40;14.70;99.90
15203;DHT22;7702;51.046;5.184;2022-09-09T05:10:07;14.70;99.90
15203;DHT22;7702;51.046;5.184;2022-09-09T05:12:33;14.60;99.90
15203;DHT22;7702;51.046;5.184;2022-09-09T05:14:59;14.60;99.90
15203;DHT22;7702;51.046;5.184;2022-09-09T05:17:24;14.70;99.90
15203;DHT22;7702;51.046;5.184;2022-09-09T05:19:50;14.70;99.90
15203;DHT22;7702;51.046;5.184;2022-09-09T05:22:20;14.60;99.90
15203;DHT22;7702;51.046;5.184;2022-09-09T05:24:46;14.70;99.90
15203;DHT22;7702;51.046;5.184;2022-09-09T05:27:13;14.70;99.90
15203;DHT22;7702;51.046;5.184;2022-09-09T05:29:39;14.70;99.90
15203;DHT22;7702;51.046;5.184;2022-09-09T05:32:07;14.70;99.90
15203;DHT22;7702;51.046;5.184;2022-09-09T05:34:32;14.70;99.90
15203;DHT22;7702;51.046;5.184;2022-09-09T05:36:58;14.80;99.90
15203;DHT22;7702;51.046;5.184;2022-09-09T05:39:23;14.90;99.90
15203;DHT22;7702;51.046;5.184;2022-09-09T05:41:49;14.90;99.90
15203;DHT22;7702;51.046;5.184;2022-09-09T05:44:16;15.00;99.90
15203;DHT22;7702;51.046;5.184;2022-09-09T05:46:42;15.00;99.90
15203;DHT22;7702;51.046;5.184;2022-09-09T05:49:08;14.90;99.90
15203;DHT22;7702;51.046;5.184;2022-09-09T05:51:33;15.10;99.90
15203;DHT22;7702;51.046;5.184;2022-09-09T05:53:59;15.10;99.90
15203;DHT22;7702;51.046;5.184;2022-09-09T05:56:28;15.00;99.90
15203;DHT22;7702;51.046;5.184;2022-09-09T05:58:54;15.00;99.90
15203;DHT22;7702;51.046;5.184;2022-09-09T06:01:31;15.00;99.90
15203;DHT22;7702;51.046;5.184;2022-09-09T06:03:58;15.10;99.90
15203;DHT22;7702;51.046;5.184;2022-09-09T06:06:31;15.10;99.90
15203;DHT22;7702;51.046;5.184;2022-09-09T06:09:03;15.20;99.90
15203;DHT22;7702;51.046;5.184;2022-09-09T06:11:30;15.30;99.90
15203;DHT22;7702;51.046;5.184;2022-09-09T06:13:56;15.30;99.90
15203;DHT22;7702;51.046;5.184;2022-09-09T06:16:25;15.40;99.90
15203;DHT22;7702;51.046;5.184;2022-09-09T06:18:52;15.40;99.90
15203;DHT22;7702;51.046;5.184;2022-09-09T06:21:27;15.50;99.90
15203;DHT22;7702;51.046;5.184;2022-09-09T06:23:52;15.40;99.90
15203;DHT22;7702;51.046;5.184;2022-09-09T06:26:29;15.40;99.90
15203;DHT22;7702;51.046;5.184;2022-09-09T06:28:56;15.50;99.90
15203;DHT22;7702;51.046;5.184;2022-09-09T06:31:25;15.60;99.90
15203;DHT22;7702;51.046;5.184;2022-09-09T06:33:53;15.60;99.90
15203;DHT22;7702;51.046;5.184;2022-09-09T06:36:29;15.80;99.90
15203;DHT22;7702;51.046;5.184;2022-09-09T06:38:57;15.90;99.90
15203;DHT22;7702;51.046;5.184;2022-09-09T06:41:26;16.10;99.90
15203;DHT22;7702;51.046;5.184;2022-09-09T06:43:52;16.20;99.90
15203;DHT22;7702;51.046;5.184;2022-09-09T06:46:23;16.40;99.90
15203;DHT22;7702;51.046;5.184;2022-09-09T06:48:53;16.70;99.90
15203;DHT22;7702;51.046;5.184;2022-09-09T06:51:26;16.90;99.90
15203;DHT22;7702;51.046;5.184;2022-09-09T06:53:56;17.00;99.90
15203;DHT22;7702;51.046;5.184;2022-09-09T06:56:32;16.90;99.90
15203;DHT22;7702;51.046;5.184;2022-09-09T06:59:00;16.90;99.90
15203;DHT22;7702;51.046;5.184;2022-09-09T07:01:37;16.80;99.90
15203;DHT22;7702;51.046;5.184;2022-09-09T07:04:04;16.90;99.90
15203;DHT22;7702;51.046;5.184;2022-09-09T07:06:37;16.90;99.90
15203;DHT22;7702;51.046;5.184;2022-09-09T07:09:05;17.00;99.90
15203;DHT22;7702;51.046;5.184;2022-09-09T07:11:37;17.00;99.90
15203;DHT22;7702;51.046;5.184;2022-09-09T07:14:02;17.00;99.90
15203;DHT22;7702;51.046;5.184;2022-09-09T07:16:29;17.10;99.90
15203;DHT22;7702;51.046;5.184;2022-09-09T07:18:56;17.00;99.90
15203;DHT22;7702;51.046;5.184;2022-09-09T07:21:27;16.90;99.90
15203;DHT22;7702;51.046;5.184;2022-09-09T07:23:53;16.70;99.90
15203;DHT22;7702;51.046;5.184;2022-09-09T07:26:22;16.70;99.90
15203;DHT22;7702;51.046;5.184;2022-09-09T07:28:49;16.70;99.90
15203;DHT22;7702;51.046;5.184;2022-09-09T07:31:16;16.70;99.90
15203;DHT22;7702;51.046;5.184;2022-09-09T07:33:43;16.80;99.90
15203;DHT22;7702;51.046;5.184;2022-09-09T07:36:15;17.00;99.90
15203;DHT22;7702;51.046;5.184;2022-09-09T07:38:42;17.10;99.90
15203;DHT22;7702;51.046;5.184;2022-09-09T07:41:14;17.20;99.90
15203;DHT22;7702;51.046;5.184;2022-09-09T07:43:41;17.20;99.90
15203;DHT22;7702;51.046;5.184;2022-09-09T07:46:07;17.20;99.90
15203;DHT22;7702;51.046;5.184;2022-09-09T07:48:34;17.30;99.90
15203;DHT22;7702;51.046;5.184;2022-09-09T07:51:11;17.40;99.90
15203;DHT22;7702;51.046;5.184;2022-09-09T07:53:38;17.20;99.90
15203;DHT22;7702;51.046;5.184;2022-09-09T07:56:07;17.10;99.90
15203;DHT22;7702;51.046;5.184;2022-09-09T07:58:35;17.10;99.90
15203;DHT22;7702;51.046;5.184;2022-09-09T08:01:15;17.00;99.90
15203;DHT22;7702;51.046;5.184;2022-09-09T08:03:44;16.90;99.90
15203;DHT22;7702;51.046;5.184;2022-09-09T08:06:11;17.00;99.90
15203;DHT22;7702;51.046;5.184;2022-09-09T08:08:38;16.90;99.90
15203;DHT22;7702;51.046;5.184;2022-09-09T08:11:13;16.90;99.90
15203;DHT22;7702;51.046;5.184;2022-09-09T08:13:40;16.90;99.90
15203;DHT22;7702;51.046;5.184;2022-09-09T08:16:18;17.00;99.90
15203;DHT22;7702;51.046;5.184;2022-09-09T08:18:44;17.10;99.90
15203;DHT22;7702;51.046;5.184;2022-09-09T08:21:11;17.20;99.90
15203;DHT22;7702;51.046;5.184;2022-09-09T08:23:41;17.10;99.90
15203;DHT22;7702;51.046;5.184;2022-09-09T08:26:13;17.20;99.90
15203;DHT22;7702;51.046;5.184;2022-09-09T08:28:40;17.10;99.90
15203;DHT22;7702;51.046;5.184;2022-09-09T08:31:15;17.20;99.90
15203;DHT22;7702;51.046;5.184;2022-09-09T08:33:42;17.20;99.90
15203;DHT22;7702;51.046;5.184;2022-09-09T08:36:16;17.20;99.90
15203;DHT22;7702;51.046;5.184;2022-09-09T08:38:43;17.20;99.90
15203;DHT22;7702;51.046;5.184;2022-09-09T08:58:35;17.30;99.90
15203;DHT22;7702;51.046;5.184;2022-09-09T09:03:43;17.40;99.90
15203;DHT22;7702;51.046;5.184;2022-09-09T09:11:25;17.70;99.90
15203;DHT22;7702;51.046;5.184;2022-09-09T09:13:58;17.80;99.90
15203;DHT22;7702;51.046;5.184;2022-09-09T09:16:53;17.80;99.90
15203;DHT22;7702;51.046;5.184;2022-09-09T09:19:19;17.70;99.90
15203;DHT22;7702;51.046;5.184;2022-09-09T09:21:58;17.60;99.90
15203;DHT22;7702;51.046;5.184;2022-09-09T09:24:51;17.60;99.90
15203;DHT22;7702;51.046;5.184;2022-09-09T09:27:38;17.60;99.90
15203;DHT22;7702;51.046;5.184;2022-09-09T09:30:26;17.60;99.90
15203;DHT22;7702;51.046;5.184;2022-09-09T09:35:26;17.40;99.90
15203;DHT22;7702;51.046;5.184;2022-09-09T09:37:52;17.40;99.90
15203;DHT22;7702;51.046;5.184;2022-09-09T09:40:20;17.40;99.90
15203;DHT22;7702;51.046;5.184;2022-09-09T09:42:57;17.30;99.90
15203;DHT22;7702;51.046;5.184;2022-09-09T09:45:34;17.10;99.90
15203;DHT22;7702;51.046;5.184;2022-09-09T09:48:02;16.80;99.90
15203;DHT22;7702;51.046;5.184;2022-09-09T09:50:28;16.70;99.90
15203;DHT22;7702;51.046;5.184;2022-09-09T09:52:57;16.60;99.90
15203;DHT22;7702;51.046;5.184;2022-09-09T09:55:24;16.60;99.90
15203;DHT22;7702;51.046;5.184;2022-09-09T09:57:50;16.60;99.90
15203;DHT22;7702;51.046;5.184;2022-09-09T10:00:26;16.60;99.90
15203;DHT22;7702;51.046;5.184;2022-09-09T10:02:51;16.50;99.90
15203;DHT22;7702;51.046;5.184;2022-09-09T10:05:29;16.50;99.90
15203;DHT22;7702;51.046;5.184;2022-09-09T10:08:13;16.50;99.90
15203;DHT22;7702;51.046;5.184;2022-09-09T10:16:37;16.20;99.90
15203;DHT22;7702;51.046;5.184;2022-09-09T10:24:57;16.10;99.90
15203;DHT22;7702;51.046;5.184;2022-09-09T10:30:19;16.10;99.90
15203;DHT22;7702;51.046;5.184;2022-09-09T10:35:46;16.10;99.90
15203;DHT22;7702;51.046;5.184;2022-09-09T10:48:41;16.60;99.90
15203;DHT22;7702;51.046;5.184;2022-09-09T10:57:13;16.90;99.90
15203;DHT22;7702;51.046;5.184;2022-09-09T10:59:47;17.00;99.90
15203;DHT22;7702;51.046;5.184;2022-09-09T11:02:20;17.00;99.90
15203;DHT22;7702;51.046;5.184;2022-09-09T11:07:41;17.00;99.90
15203;DHT22;7702;51.046;5.184;2022-09-09T11:12:49;17.00;99.90
15203;DHT22;7702;51.046;5.184;2022-09-09T11:15:22;17.00;99.90
15203;DHT22;7702;51.046;5.184;2022-09-09T11:18:01;17.00;99.90
15203;DHT22;7702;51.046;5.184;2022-09-09T11:20:27;17.10;99.90
15203;DHT22;7702;51.046;5.184;2022-09-09T11:23:03;17.10;99.90
15203;DHT22;7702;51.046;5.184;2022-09-09T11:25:36;17.30;99.90
15203;DHT22;7702;51.046;5.184;2022-09-09T11:34:08;17.60;99.90
15203;DHT22;7702;51.046;5.184;2022-09-09T11:42:22;18.00;99.90
15203;DHT22;7702;51.046;5.184;2022-09-09T11:44:49;18.10;99.90
15203;DHT22;7702;51.046;5.184;2022-09-09T11:47:24;18.20;99.90
15203;DHT22;7702;51.046;5.184;2022-09-09T11:49:52;18.30;99.90
15203;DHT22;7702;51.046;5.184;2022-09-09T11:57:38;18.50;99.90
15203;DHT22;7702;51.046;5.184;2022-09-09T12:00:05;18.60;99.90
15203;DHT22;7702;51.046;5.184;2022-09-09T12:02:31;18.90;99.90
15203;DHT22;7702;51.046;5.184;2022-09-09T12:05:09;18.90;99.90
15203;DHT22;7702;51.046;5.184;2022-09-09T12:07:45;18.90;99.90
15203;DHT22;7702;51.046;5.184;2022-09-09T12:10:27;18.90;99.90
15203;DHT22;7702;51.046;5.184;2022-09-09T12:12:55;19.00;99.90
15203;DHT22;7702;51.046;5.184;2022-09-09T12:15:27;19.10;99.90
15203;DHT22;7702;51.046;5.184;2022-09-09T12:17:58;19.40;99.90
15203;DHT22;7702;51.046;5.184;2022-09-09T12:20:33;19.70;99.90
15203;DHT22;7702;51.046;5.184;2022-09-09T12:29:27;19.80;99.90
15203;DHT22;7702;51.046;5.184;2022-09-09T12:34:39;20.00;99.90
15203;DHT22;7702;51.046;5.184;2022-09-09T12:39:59;19.70;99.90
15203;DHT22;7702;51.046;5.184;2022-09-09T12:42:28;19.60;99.90
15203;DHT22;7702;51.046;5.184;2022-09-09T12:44:55;19.80;99.90
15203;DHT22;7702;51.046;5.184;2022-09-09T12:47:25;20.10;99.90
15203;DHT22;7702;51.046;5.184;2022-09-09T12:49:52;20.20;99.90
15203;DHT22;7702;51.046;5.184;2022-09-09T12:52:29;20.00;99.90
15203;DHT22;7702;51.046;5.184;2022-09-09T12:54:58;19.60;99.90
15203;DHT22;7702;51.046;5.184;2022-09-09T12:57:33;19.60;99.90
15203;DHT22;7702;51.046;5.184;2022-09-09T13:00:26;19.60;99.90
15203;DHT22;7702;51.046;5.184;2022-09-09T13:03:18;19.30;99.90
15203;DHT22;7702;51.046;5.184;2022-09-09T13:05:46;19.50;99.90
15203;DHT22;7702;51.046;5.184;2022-09-09T13:08:13;19.30;99.90
15203;DHT22;7702;51.046;5.184;2022-09-09T13:10:57;19.20;99.90
15203;DHT22;7702;51.046;5.184;2022-09-09T13:15:59;19.40;99.90
15203;DHT22;7702;51.046;5.184;2022-09-09T13:18:33;19.70;99.90
15203;DHT22;7702;51.046;5.184;2022-09-09T13:20:59;19.90;99.90
15203;DHT22;7702;51.046;5.184;2022-09-09T13:23:34;19.90;99.90
15203;DHT22;7702;51.046;5.184;2022-09-09T13:26:05;19.80;99.90
15203;DHT22;7702;51.046;5.184;2022-09-09T13:28:33;19.80;99.90
15203;DHT22;7702;51.046;5.184;2022-09-09T13:31:05;20.00;99.90
15203;DHT22;7702;51.046;5.184;2022-09-09T13:33:38;20.60;99.90
15203;DHT22;7702;51.046;5.184;2022-09-09T13:36:08;21.30;99.90
15203;DHT22;7702;51.046;5.184;2022-09-09T13:38:56;21.30;99.90
15203;DHT22;7702;51.046;5.184;2022-09-09T13:41:25;20.80;99.90
15203;DHT22;7702;51.046;5.184;2022-09-09T13:43:51;20.40;99.90
15203;DHT22;7702;51.046;5.184;2022-09-09T13:49:20;19.80;99.90
15203;DHT22;7702;51.046;5.184;2022-09-09T13:51:51;19.70;99.90
15203;DHT22;7702;51.046;5.184;2022-09-09T13:54:20;19.70;99.90
15203;DHT22;7702;51.046;5.184;2022-09-09T13:56:47;19.90;99.90
15203;DHT22;7702;51.046;5.184;2022-09-09T13:59:17;19.80;99.90
15203;DHT22;7702;51.046;5.184;2022-09-09T14:01:45;20.00;99.90
15203;DHT22;7702;51.046;5.184;2022-09-09T14:04:11;19.80;99.90
15203;DHT22;7702;51.046;5.184;2022-09-09T14:06:38;20.10;99.90
15203;DHT22;7702;51.046;5.184;2022-09-09T14:09:11;20.50;99.90
15203;DHT22;7702;51.046;5.184;2022-09-09T14:11:37;20.80;99.90
15203;DHT22;7702;51.046;5.184;2022-09-09T14:14:03;21.00;99.90
15203;DHT22;7702;51.046;5.184;2022-09-09T14:16:30;21.00;99.90
15203;DHT22;7702;51.046;5.184;2022-09-09T14:18:55;20.90;99.90
15203;DHT22;7702;51.046;5.184;2022-09-09T14:21:25;20.90;99.90
15203;DHT22;7702;51.046;5.184;2022-09-09T14:23:51;21.10;99.90
15203;DHT22;7702;51.046;5.184;2022-09-09T14:26:18;21.20;99.90
15203;DHT22;7702;51.046;5.184;2022-09-09T14:28:46;21.10;99.90
15203;DHT22;7702;51.046;5.184;2022-09-09T14:31:13;21.00;99.90
15203;DHT22;7702;51.046;5.184;2022-09-09T14:33:39;21.40;99.90
15203;DHT22;7702;51.046;5.184;2022-09-09T14:36:06;21.70;99.90
15203;DHT22;7702;51.046;5.184;2022-09-09T14:38:34;21.30;99.90
15203;DHT22;7702;51.046;5.184;2022-09-09T14:41:04;21.20;99.90
15203;DHT22;7702;51.046;5.184;2022-09-09T14:43:30;21.10;99.90
15203;DHT22;7702;51.046;5.184;2022-09-09T14:46:07;20.90;99.90
15203;DHT22;7702;51.046;5.184;2022-09-09T14:48:34;20.60;99.90
15203;DHT22;7702;51.046;5.184;2022-09-09T14:51:11;20.50;99.90
15203;DHT22;7702;51.046;5.184;2022-09-09T14:53:38;20.70;99.90
15203;DHT22;7702;51.046;5.184;2022-09-09T14:56:09;20.80;99.90
15203;DHT22;7702;51.046;5.184;2022-09-09T14:58:36;20.80;99.90
15203;DHT22;7702;51.046;5.184;2022-09-09T15:01:04;20.90;99.90
15203;DHT22;7702;51.046;5.184;2022-09-09T15:03:30;21.10;99.90
15203;DHT22;7702;51.046;5.184;2022-09-09T15:05:56;21.00;99.90
15203;DHT22;7702;51.046;5.184;2022-09-09T15:08:24;20.90;99.90
15203;DHT22;7702;51.046;5.184;2022-09-09T15:10:49;20.90;99.90
15203;DHT22;7702;51.046;5.184;2022-09-09T15:13:16;20.90;99.90
15203;DHT22;7702;51.046;5.184;2022-09-09T15:15:43;21.10;99.90
15203;DHT22;7702;51.046;5.184;2022-09-09T15:18:09;21.40;99.90
15203;DHT22;7702;51.046;5.184;2022-09-09T15:20:35;21.60;99.90
15203;DHT22;7702;51.046;5.184;2022-09-09T15:23:02;21.60;99.90
15203;DHT22;7702;51.046;5.184;2022-09-09T15:25:28;21.60;99.90
15203;DHT22;7702;51.046;5.184;2022-09-09T15:27:54;21.50;99.90
15203;DHT22;7702;51.046;5.184;2022-09-09T15:30:21;21.20;99.90
15203;DHT22;7702;51.046;5.184;2022-09-09T15:32:47;21.10;99.90
15203;DHT22;7702;51.046;5.184;2022-09-09T15:35:12;21.30;99.90
15203;DHT22;7702;51.046;5.184;2022-09-09T15:37:38;21.60;99.90
15203;DHT22;7702;51.046;5.184;2022-09-09T15:40:04;21.80;99.90
15203;DHT22;7702;51.046;5.184;2022-09-09T15:42:30;21.60;99.90
15203;DHT22;7702;51.046;5.184;2022-09-09T15:44:55;21.90;99.90
15203;DHT22;7702;51.046;5.184;2022-09-09T15:47:22;22.00;99.90
15203;DHT22;7702;51.046;5.184;2022-09-09T15:49:47;21.90;99.90
15203;DHT22;7702;51.046;5.184;2022-09-09T15:52:13;21.70;99.90
15203;DHT22;7702;51.046;5.184;2022-09-09T15:54:39;21.60;99.90
15203;DHT22;7702;51.046;5.184;2022-09-09T15:57:07;21.40;99.90
15203;DHT22;7702;51.046;5.184;2022-09-09T15:59:34;21.20;99.90
15203;DHT22;7702;51.046;5.184;2022-09-09T16:02:00;21.10;99.90
15203;DHT22;7702;51.046;5.184;2022-09-09T16:04:27;20.80;99.90
15203;DHT22;7702;51.046;5.184;2022-09-09T16:06:56;20.70;99.90
15203;DHT22;7702;51.046;5.184;2022-09-09T16:09:24;20.70;99.90
15203;DHT22;7702;51.046;5.184;2022-09-09T16:11:50;20.50;99.90
15203;DHT22;7702;51.046;5.184;2022-09-09T16:14:16;20.40;99.90
15203;DHT22;7702;51.046;5.184;2022-09-09T16:16:42;20.30;99.90
15203;DHT22;7702;51.046;5.184;2022-09-09T16:19:10;20.20;99.90
15203;DHT22;7702;51.046;5.184;2022-09-09T16:21:39;20.20;99.90
15203;DHT22;7702;51.046;5.184;2022-09-09T16:24:06;20.20;99.90
15203;DHT22;7702;51.046;5.184;2022-09-09T16:26:34;20.10;99.90
15203;DHT22;7702;51.046;5.184;2022-09-09T16:29:01;20.20;99.90
15203;DHT22;7702;51.046;5.184;2022-09-09T16:31:28;20.10;99.90
15203;DHT22;7702;51.046;5.184;2022-09-09T16:33:54;20.10;99.90
15203;DHT22;7702;51.046;5.184;2022-09-09T16:36:26;20.00;99.90
15203;DHT22;7702;51.046;5.184;2022-09-09T16:38:57;19.80;99.90
15203;DHT22;7702;51.046;5.184;2022-09-09T16:41:24;19.50;99.90
15203;DHT22;7702;51.046;5.184;2022-09-09T16:43:54;18.90;99.90
15203;DHT22;7702;51.046;5.184;2022-09-09T16:46:21;18.60;99.90
15203;DHT22;7702;51.046;5.184;2022-09-09T16:48:48;18.40;99.90
15203;DHT22;7702;51.046;5.184;2022-09-09T16:51:20;18.10;99.90
15203;DHT22;7702;51.046;5.184;2022-09-09T16:53:46;17.90;99.90
15203;DHT22;7702;51.046;5.184;2022-09-09T16:56:14;17.70;99.90
15203;DHT22;7702;51.046;5.184;2022-09-09T16:58:41;17.50;99.90
15203;DHT22;7702;51.046;5.184;2022-09-09T17:01:09;17.30;99.90
15203;DHT22;7702;51.046;5.184;2022-09-09T17:03:36;17.00;99.90
15203;DHT22;7702;51.046;5.184;2022-09-09T17:06:03;16.80;99.90
15203;DHT22;7702;51.046;5.184;2022-09-09T17:08:33;16.80;99.90
15203;DHT22;7702;51.046;5.184;2022-09-09T17:10:59;16.80;99.90
15203;DHT22;7702;51.046;5.184;2022-09-09T17:13:25;16.70;99.90
15203;DHT22;7702;51.046;5.184;2022-09-09T17:15:51;16.60;99.90
15203;DHT22;7702;51.046;5.184;2022-09-09T17:18:17;16.50;99.90
15203;DHT22;7702;51.046;5.184;2022-09-09T17:20:43;16.40;99.90
15203;DHT22;7702;51.046;5.184;2022-09-09T17:23:11;16.20;99.90
15203;DHT22;7702;51.046;5.184;2022-09-09T17:25:41;16.20;99.90
15203;DHT22;7702;51.046;5.184;2022-09-09T17:28:07;16.20;99.90
15203;DHT22;7702;51.046;5.184;2022-09-09T17:30:36;16.10;99.90
15203;DHT22;7702;51.046;5.184;2022-09-09T17:33:03;16.20;99.90
15203;DHT22;7702;51.046;5.184;2022-09-09T17:35:30;16.20;99.90
15203;DHT22;7702;51.046;5.184;2022-09-09T17:37:55;16.20;99.90
15203;DHT22;7702;51.046;5.184;2022-09-09T17:40:21;16.20;99.90
15203;DHT22;7702;51.046;5.184;2022-09-09T17:42:48;16.30;99.90
15203;DHT22;7702;51.046;5.184;2022-09-09T17:45:14;16.30;99.90
15203;DHT22;7702;51.046;5.184;2022-09-09T17:47:40;16.30;99.90
15203;DHT22;7702;51.046;5.184;2022-09-09T17:50:08;16.40;99.90
15203;DHT22;7702;51.046;5.184;2022-09-09T17:52:35;16.40;99.90
15203;DHT22;7702;51.046;5.184;2022-09-09T17:55:01;16.50;99.90
15203;DHT22;7702;51.046;5.184;2022-09-09T17:57:26;16.50;99.90
15203;DHT22;7702;51.046;5.184;2022-09-09T17:59:53;16.50;99.90
15203;DHT22;7702;51.046;5.184;2022-09-09T18:02:18;16.50;99.90
15203;DHT22;7702;51.046;5.184;2022-09-09T18:04:44;16.50;99.90
15203;DHT22;7702;51.046;5.184;2022-09-09T18:07:11;16.50;99.90
15203;DHT22;7702;51.046;5.184;2022-09-09T18:09:38;16.50;99.90
15203;DHT22;7702;51.046;5.184;2022-09-09T18:12:05;16.60;99.90
15203;DHT22;7702;51.046;5.184;2022-09-09T18:14:31;16.60;99.90
15203;DHT22;7702;51.046;5.184;2022-09-09T18:16:59;16.60;99.90
15203;DHT22;7702;51.046;5.184;2022-09-09T18:19:27;16.60;99.90
15203;DHT22;7702;51.046;5.184;2022-09-09T18:21:55;16.70;99.90
15203;DHT22;7702;51.046;5.184;2022-09-09T18:24:21;16.70;99.90